Time;durP1;ratioP1;P1;durP2;ratioP2;P2;SDS_P1;SDS_P2;PMS_P1;PMS_P2;Temp;Humidity;BMP_temperature;BMP_pressure;BME280_temperature;BME280_humidity;BME280_pressure;Samples;Min_cycle;Max_cycle;Signal;HPM_P1;HPM_P2
2021/10/22 00:02:13;;;;;;;12.65;5.25;;;7.70;99.90;;;;;;4976714;28;20548;-78
2021/10/22 00:04:40;;;;;;;13.65;4.53;;;7.70;99.90;;;;;;4976941;28;20082;-78
2021/10/22 00:07:07;;;;;;;19.45;5.90;;;7.80;99.90;;;;;;4976980;28;20093;-78
2021/10/22 00:09:34;;;;;;;22.40;5.38;;;7.80;99.90;;;;;;4975908;28;20050;-78
2021/10/22 00:12:01;;;;;;;20.73;5.80;;;7.80;99.90;;;;;;4978294;28;20047;-80
2021/10/22 00:14:29;;;;;;;14.68;5.38;;;7.80;99.90;;;;;;4979537;28;20117;-79
2021/10/22 00:16:56;;;;;;;22.75;5.05;;;7.80;99.90;;;;;;4979931;28;20054;-80
2021/10/22 00:19:23;;;;;;;17.33;5.78;;;7.80;99.90;;;;;;4981065;28;20441;-81
2021/10/22 00:21:57;;;;;;;15.05;5.10;;;7.80;99.90;;;;;;4981987;28;20055;-81
2021/10/22 00:24:29;;;;;;;20.88;5.68;;;7.80;99.90;;;;;;4981919;28;20138;-79
2021/10/22 00:26:59;;;;;;;17.95;5.90;;;7.80;99.90;;;;;;4979716;28;20472;-79
2021/10/22 00:29:27;;;;;;;16.00;5.70;;;7.80;99.90;;;;;;4977771;28;20073;-78
2021/10/22 00:31:55;;;;;;;19.20;5.38;;;7.90;99.90;;;;;;4975760;28;20442;-78
2021/10/22 00:34:22;;;;;;;19.70;5.57;;;7.90;99.90;;;;;;4975708;28;20054;-78
2021/10/22 00:36:50;;;;;;;15.35;5.63;;;8.00;99.90;;;;;;4975317;28;20121;-78
2021/10/22 00:39:17;;;;;;;17.17;5.78;;;7.90;99.90;;;;;;4975442;28;20085;-78
2021/10/22 00:41:52;;;;;;;18.65;6.88;;;8.00;99.90;;;;;;4974705;28;20059;-78
2021/10/22 00:44:19;;;;;;;17.38;5.50;;;8.00;99.90;;;;;;4975251;28;20161;-78
2021/10/22 00:46:46;;;;;;;19.08;6.32;;;8.00;99.90;;;;;;4978395;28;20054;-78
2021/10/22 00:49:15;;;;;;;21.67;5.97;;;8.00;99.90;;;;;;4973957;28;20518;-78
2021/10/22 00:51:44;;;;;;;19.33;5.68;;;8.00;99.90;;;;;;4975632;28;20142;-78
2021/10/22 00:54:11;;;;;;;19.10;5.72;;;7.90;99.90;;;;;;4975207;28;20440;-78
2021/10/22 00:56:38;;;;;;;17.20;7.13;;;7.90;99.90;;;;;;4974399;28;20440;-77
2021/10/22 00:59:06;;;;;;;21.23;7.43;;;7.80;99.90;;;;;;4974420;28;20105;-78
2021/10/22 01:01:39;;;;;;;21.23;7.90;;;7.80;99.90;;;;;;4974545;28;20055;-78
2021/10/22 01:04:07;;;;;;;21.90;6.28;;;7.70;99.90;;;;;;4976263;28;20054;-79
2021/10/22 01:06:38;;;;;;;19.30;5.95;;;7.60;99.90;;;;;;4977141;28;20051;-79
2021/10/22 01:09:08;;;;;;;18.75;5.88;;;7.60;99.90;;;;;;4978676;28;20137;-79
2021/10/22 01:11:35;;;;;;;13.82;5.30;;;7.60;99.90;;;;;;4978101;28;20047;-80
2021/10/22 01:14:03;;;;;;;15.77;5.75;;;7.50;99.90;;;;;;4975090;28;20093;-79
2021/10/22 01:16:30;;;;;;;12.48;5.28;;;7.50;99.90;;;;;;4975580;28;20707;-78
2021/10/22 01:18:57;;;;;;;22.83;5.35;;;7.40;99.90;;;;;;4974347;28;20113;-77
2021/10/22 01:21:25;;;;;;;20.30;6.57;;;7.40;99.90;;;;;;4973996;28;20422;-81
2021/10/22 01:23:52;;;;;;;13.88;5.43;;;7.40;99.90;;;;;;4976255;28;20051;-79
2021/10/22 01:26:20;;;;;;;23.25;5.20;;;7.40;99.90;;;;;;4976636;28;20085;-79
2021/10/22 01:28:47;;;;;;;13.80;5.43;;;7.40;99.90;;;;;;4977758;28;20050;-79
2021/10/22 01:31:15;;;;;;;15.90;6.65;;;7.40;99.90;;;;;;4977445;28;20047;-78
2021/10/22 01:33:43;;;;;;;20.38;6.35;;;7.30;99.90;;;;;;4974582;28;20114;-78
2021/10/22 01:36:10;;;;;;;17.35;5.70;;;7.30;99.90;;;;;;4975479;28;20097;-81
2021/10/22 01:38:39;;;;;;;17.33;5.53;;;7.30;99.90;;;;;;4976863;28;20062;-79
2021/10/22 01:41:06;;;;;;;15.23;5.50;;;7.30;99.90;;;;;;4976902;28;20126;-78
2021/10/22 01:43:33;;;;;;;23.58;5.60;;;7.30;99.90;;;;;;4979809;28;20116;-78
2021/10/22 01:46:01;;;;;;;17.88;4.60;;;7.30;99.90;;;;;;4973368;28;20050;-78
2021/10/22 01:48:28;;;;;;;16.20;4.88;;;7.20;99.90;;;;;;4973156;28;20169;-79
2021/10/22 01:50:54;;;;;;;20.27;5.18;;;7.30;99.90;;;;;;4973941;28;20051;-79
2021/10/22 01:53:21;;;;;;;16.58;5.43;;;7.30;99.90;;;;;;4972666;28;20050;-78
2021/10/22 01:55:51;;;;;;;22.42;5.93;;;7.30;99.90;;;;;;4972624;28;20505;-79
2021/10/22 01:58:19;;;;;;;19.75;4.97;;;7.20;99.90;;;;;;4973250;28;20055;-78
2021/10/22 02:00:46;;;;;;;18.95;5.32;;;7.30;99.90;;;;;;4974314;28;20081;-78
2021/10/22 02:03:13;;;;;;;17.05;5.40;;;7.20;99.90;;;;;;4975042;28;20086;-78
2021/10/22 02:05:40;;;;;;;20.42;5.97;;;7.20;99.90;;;;;;4973595;28;20146;-77
2021/10/22 02:08:08;;;;;;;17.13;5.43;;;7.20;99.90;;;;;;4974794;28;20110;-78
2021/10/22 02:10:36;;;;;;;17.67;6.68;;;7.20;99.90;;;;;;4972740;28;20069;-78
2021/10/22 02:13:06;;;;;;;26.67;6.40;;;7.20;99.90;;;;;;4974025;28;20047;-78
2021/10/22 02:15:38;;;;;;;17.88;6.70;;;7.20;99.90;;;;;;4975826;28;20050;-78
2021/10/22 02:18:05;;;;;;;23.27;6.32;;;7.20;99.90;;;;;;4976583;28;20046;-79
2021/10/22 02:20:33;;;;;;;27.48;6.85;;;7.20;99.90;;;;;;4975303;28;20370;-78
2021/10/22 02:23:00;;;;;;;23.40;6.50;;;7.20;99.90;;;;;;4975389;28;20051;-78
2021/10/22 02:25:27;;;;;;;18.95;6.32;;;7.10;99.90;;;;;;4976431;28;20123;-78
2021/10/22 02:27:55;;;;;;;17.60;5.88;;;7.10;99.90;;;;;;4973009;28;20059;-79
2021/10/22 02:30:24;;;;;;;19.02;6.07;;;7.10;99.90;;;;;;4973459;28;20425;-78
2021/10/22 02:32:51;;;;;;;24.90;6.93;;;7.10;99.90;;;;;;4975309;28;20046;-78
2021/10/22 02:35:24;;;;;;;17.63;6.57;;;7.10;99.90;;;;;;4978468;28;20129;-78
2021/10/22 02:37:51;;;;;;;21.38;6.32;;;7.10;99.90;;;;;;4978734;28;20090;-78
2021/10/22 02:40:19;;;;;;;25.92;6.55;;;7.00;99.90;;;;;;4983598;28;20057;-79
2021/10/22 02:42:46;;;;;;;27.05;6.75;;;7.00;99.90;;;;;;4982904;28;20066;-79
2021/10/22 02:45:13;;;;;;;19.50;6.85;;;7.00;99.90;;;;;;4982000;28;20066;-79
2021/10/22 02:47:42;;;;;;;23.85;6.43;;;6.90;99.90;;;;;;4982774;28;20062;-79
2021/10/22 02:50:09;;;;;;;20.60;5.72;;;6.90;99.90;;;;;;4980762;28;20050;-79
2021/10/22 02:52:36;;;;;;;17.27;6.38;;;6.90;99.90;;;;;;4977015;28;20082;-78
2021/10/22 02:55:04;;;;;;;20.23;6.25;;;6.90;99.90;;;;;;4976440;28;20054;-79
2021/10/22 02:57:34;;;;;;;20.40;6.65;;;6.80;99.90;;;;;;4977035;28;20105;-79
2021/10/22 03:00:01;;;;;;;20.00;7.13;;;6.90;99.90;;;;;;4976294;28;20046;-78
2021/10/22 03:02:28;;;;;;;25.77;7.45;;;6.80;99.90;;;;;;4977614;28;20484;-79
2021/10/22 03:04:57;;;;;;;20.75;6.60;;;6.80;99.90;;;;;;4977337;28;20054;-78
2021/10/22 03:07:24;;;;;;;28.20;7.00;;;6.80;99.90;;;;;;4976782;28;20146;-79
2021/10/22 03:09:51;;;;;;;19.13;6.78;;;6.80;99.90;;;;;;4981622;28;20054;-79
2021/10/22 03:12:18;;;;;;;22.33;6.82;;;6.70;99.90;;;;;;4981001;28;20114;-79
2021/10/22 03:14:45;;;;;;;28.15;6.60;;;6.70;99.90;;;;;;4980142;28;20184;-81
2021/10/22 03:17:12;;;;;;;28.80;6.70;;;6.70;99.90;;;;;;4977765;28;20054;-77
2021/10/22 03:19:39;;;;;;;19.88;7.05;;;6.70;99.90;;;;;;4975479;28;20305;-78
2021/10/22 03:22:07;;;;;;;23.50;6.55;;;6.60;99.90;;;;;;4977419;28;20047;-79
2021/10/22 03:24:34;;;;;;;21.50;6.35;;;6.60;99.90;;;;;;4975713;28;20086;-77
2021/10/22 03:27:04;;;;;;;20.02;6.25;;;6.60;99.90;;;;;;4975736;28;20062;-78
2021/10/22 03:29:31;;;;;;;20.70;6.70;;;6.60;99.90;;;;;;4975336;28;20513;-78
2021/10/22 03:31:58;;;;;;;18.42;6.00;;;6.60;99.90;;;;;;4975659;28;20162;-78
2021/10/22 03:34:25;;;;;;;21.10;6.22;;;6.50;99.90;;;;;;4975675;28;20082;-79
2021/10/22 03:36:52;;;;;;;18.50;6.18;;;6.50;99.90;;;;;;4975271;28;20117;-79
2021/10/22 03:39:20;;;;;;;25.70;6.18;;;6.50;99.90;;;;;;4975644;28;20138;-79
2021/10/22 03:41:47;;;;;;;17.70;5.57;;;6.60;99.90;;;;;;4975652;28;20086;-78
2021/10/22 03:44:16;;;;;;;18.95;6.22;;;6.60;99.90;;;;;;4974787;28;20057;-79
2021/10/22 03:46:45;;;;;;;18.15;6.03;;;6.60;99.90;;;;;;4975234;28;20051;-79
2021/10/22 03:49:37;;;;;;;21.33;5.70;;;6.60;99.90;;;;;;4976904;28;20058;-79
2021/10/22 03:52:05;;;;;;;15.68;5.78;;;6.50;99.90;;;;;;4976160;28;20061;-79
2021/10/22 03:54:33;;;;;;;16.58;5.50;;;6.50;99.90;;;;;;4975568;28;20094;-77
2021/10/22 03:57:00;;;;;;;15.40;5.53;;;6.50;99.90;;;;;;4975559;28;20117;-78
2021/10/22 03:59:27;;;;;;;19.95;5.50;;;6.50;99.90;;;;;;4975480;28;20090;-78
2021/10/22 04:01:54;;;;;;;16.45;6.18;;;6.50;99.90;;;;;;4979623;28;20094;-79
2021/10/22 04:04:27;;;;;;;15.57;5.72;;;6.50;99.90;;;;;;4975569;28;20117;-79
2021/10/22 04:06:54;;;;;;;20.52;5.50;;;6.50;99.90;;;;;;4977679;28;20088;-78
2021/10/22 04:09:21;;;;;;;22.02;5.53;;;6.50;99.90;;;;;;4978123;28;20050;-78
2021/10/22 04:11:49;;;;;;;19.73;5.78;;;6.50;99.90;;;;;;4977714;28;20074;-79
2021/10/22 04:14:16;;;;;;;14.55;5.75;;;6.50;99.90;;;;;;4978499;28;20074;-80
2021/10/22 04:16:43;;;;;;;20.88;6.05;;;6.50;99.90;;;;;;4977232;28;20260;-78
2021/10/22 04:19:11;;;;;;;18.73;6.18;;;6.50;99.90;;;;;;4976367;28;20482;-79
2021/10/22 04:21:38;;;;;;;24.52;7.25;;;6.50;99.90;;;;;;4979234;28;20134;-78
2021/10/22 04:24:05;;;;;;;18.83;6.30;;;6.60;99.90;;;;;;4977980;28;20054;-79
2021/10/22 04:26:32;;;;;;;19.90;6.30;;;6.50;99.90;;;;;;4975044;28;20090;-78
2021/10/22 04:29:01;;;;;;;13.00;5.43;;;6.50;99.90;;;;;;4974196;28;20051;-78
2021/10/22 04:31:27;;;;;;;20.27;5.57;;;6.50;99.90;;;;;;4975044;28;20057;-78
2021/10/22 04:33:54;;;;;;;13.95;5.82;;;6.50;99.90;;;;;;4975928;28;20126;-79
2021/10/22 04:36:22;;;;;;;15.30;6.22;;;6.50;99.90;;;;;;4978577;28;20129;-79
2021/10/22 04:41:39;;;;;;;20.58;6.32;;;6.50;99.90;;;;;;4978105;28;20433;-79
2021/10/22 04:44:07;;;;;;;16.92;5.82;;;6.40;99.90;;;;;;4975775;28;20057;-78
2021/10/22 04:46:34;;;;;;;19.45;6.80;;;6.40;99.90;;;;;;4976289;28;20484;-78
2021/10/22 04:49:01;;;;;;;17.10;6.32;;;6.40;99.90;;;;;;4979311;28;20501;-78
2021/10/22 04:51:28;;;;;;;18.95;6.20;;;6.40;99.90;;;;;;4976988;28;20046;-78
2021/10/22 04:53:55;;;;;;;20.27;6.30;;;6.50;99.90;;;;;;5044326;23;20488;-86
2021/10/22 04:56:22;;;;;;;17.02;6.28;;;6.50;99.90;;;;;;5005419;28;20050;-84
2021/10/22 04:58:49;;;;;;;22.83;6.13;;;6.50;99.90;;;;;;5007828;28;20050;-86
2021/10/22 05:01:18;;;;;;;19.88;6.47;;;6.50;99.90;;;;;;5006622;28;20062;-85
2021/10/22 05:03:45;;;;;;;22.27;7.13;;;6.40;99.90;;;;;;4995994;28;20067;-86
2021/10/22 05:06:12;;;;;;;14.45;6.40;;;6.40;99.90;;;;;;4986286;28;20058;-83
2021/10/22 05:08:39;;;;;;;18.85;7.00;;;6.40;99.90;;;;;;4984946;28;20058;-85
2021/10/22 05:11:06;;;;;;;19.05;6.15;;;6.40;99.90;;;;;;4986903;28;20083;-84
2021/10/22 05:13:55;;;;;;;24.40;6.57;;;6.40;99.90;;;;;;4983837;28;20089;-85
2021/10/22 05:16:30;;;;;;;19.02;6.45;;;6.40;99.90;;;;;;4988375;28;20047;-86
2021/10/22 05:19:06;;;;;;;11.48;5.80;;;6.40;99.90;;;;;;4987495;28;20501;-84
2021/10/22 05:21:42;;;;;;;16.33;6.43;;;6.40;99.90;;;;;;4989916;28;20082;-85
2021/10/22 05:24:12;;;;;;;23.58;6.70;;;6.40;99.90;;;;;;4988830;28;20047;-83
2021/10/22 05:29:34;;;;;;;23.75;6.05;;;6.40;99.90;;;;;;4989815;28;20039;-84
2021/10/22 05:32:14;;;;;;;13.85;5.95;;;6.40;99.90;;;;;;4988731;28;20049;-83
2021/10/22 05:35:06;;;;;;;19.13;5.82;;;6.40;99.90;;;;;;4987761;28;20047;-85
2021/10/22 05:37:47;;;;;;;20.58;5.40;;;6.40;99.90;;;;;;4986850;28;20113;-84
2021/10/22 05:41:04;;;;;;;16.70;5.53;;;6.40;99.90;;;;;;4984466;28;20061;-84
2021/10/22 05:44:12;;;;;;;20.15;6.18;;;6.30;99.90;;;;;;4967441;28;20046;-84
2021/10/22 05:46:41;;;;;;;18.75;6.03;;;6.30;99.90;;;;;;4965975;28;20058;-81
2021/10/22 05:49:13;;;;;;;12.82;5.53;;;6.30;99.90;;;;;;4966202;28;20066;-81
2021/10/22 05:51:40;;;;;;;16.00;5.15;;;6.30;99.90;;;;;;4968209;28;20047;-81
2021/10/22 05:54:07;;;;;;;17.50;5.03;;;6.40;99.90;;;;;;4968667;28;20055;-82
2021/10/22 05:56:34;;;;;;;18.45;6.50;;;6.30;99.90;;;;;;4966778;28;20047;-82
2021/10/22 05:59:01;;;;;;;19.02;5.93;;;6.30;99.90;;;;;;4965276;28;20130;-83
2021/10/22 06:01:28;;;;;;;15.82;5.20;;;6.30;99.90;;;;;;4960116;28;20134;-82
2021/10/22 06:03:55;;;;;;;15.98;5.15;;;6.40;99.90;;;;;;4958534;28;20074;-82
2021/10/22 06:06:23;;;;;;;21.88;6.57;;;6.40;99.90;;;;;;4977637;28;20083;-81
2021/10/22 06:08:50;;;;;;;11.85;5.50;;;6.40;99.90;;;;;;4977395;28;20106;-81
2021/10/22 06:11:17;;;;;;;14.52;5.68;;;6.40;99.90;;;;;;4977999;28;20485;-81
2021/10/22 06:13:44;;;;;;;12.25;5.72;;;6.40;99.90;;;;;;4982043;28;20042;-81
2021/10/22 06:16:13;;;;;;;13.85;4.78;;;6.40;99.90;;;;;;4981693;28;20055;-80
2021/10/22 06:18:46;;;;;;;14.32;5.03;;;6.40;99.90;;;;;;4979738;28;20059;-79
2021/10/22 06:21:21;;;;;;;10.68;5.53;;;6.50;99.90;;;;;;4979866;28;20058;-81
2021/10/22 06:23:55;;;;;;;14.98;5.07;;;6.40;99.90;;;;;;4981742;28;20497;-83
2021/10/22 06:26:23;;;;;;;11.52;5.15;;;6.40;99.90;;;;;;4982649;28;20150;-81
2021/10/22 06:28:50;;;;;;;17.20;6.97;;;6.40;99.90;;;;;;4985043;28;20047;-80
2021/10/22 06:31:20;;;;;;;14.00;5.40;;;6.50;99.90;;;;;;4982022;28;20074;-80
2021/10/22 06:33:47;;;;;;;11.88;4.80;;;6.60;99.90;;;;;;4982109;28;20074;-81
2021/10/22 06:36:15;;;;;;;13.02;5.03;;;6.70;99.90;;;;;;4983856;28;20061;-81
2021/10/22 06:38:42;;;;;;;14.32;5.38;;;6.80;99.90;;;;;;4984005;28;20106;-82
2021/10/22 06:41:10;;;;;;;12.25;6.47;;;7.00;99.90;;;;;;4984868;28;20081;-83
2021/10/22 06:43:37;;;;;;;11.93;5.20;;;7.10;99.90;;;;;;4978920;28;20130;-81
2021/10/22 06:46:05;;;;;;;11.82;4.15;;;7.20;99.90;;;;;;4977843;28;20110;-84
2021/10/22 06:48:32;;;;;;;13.10;5.70;;;7.30;99.90;;;;;;4978175;28;20120;-83
2021/10/22 06:50:59;;;;;;;13.35;4.43;;;7.50;99.90;;;;;;4979468;28;20487;-85
2021/10/22 06:53:26;;;;;;;15.85;4.47;;;7.60;99.90;;;;;;4975717;28;20053;-84
2021/10/22 06:55:53;;;;;;;13.45;5.00;;;7.80;99.90;;;;;;4977750;28;20073;-84
2021/10/22 06:58:21;;;;;;;11.57;5.15;;;8.00;99.90;;;;;;4980952;28;20050;-81
2021/10/22 07:00:53;;;;;;;13.07;5.05;;;8.20;99.90;;;;;;4979035;28;20118;-80
2021/10/22 07:03:24;;;;;;;19.52;4.93;;;8.30;99.90;;;;;;4966729;28;20050;-80
2021/10/22 07:06:03;;;;;;;10.45;4.72;;;8.40;99.90;;;;;;4980824;28;20077;-82
2021/10/22 07:08:29;;;;;;;12.55;4.20;;;8.60;99.90;;;;;;4982595;28;20059;-81
2021/10/22 07:10:56;;;;;;;12.70;5.32;;;8.80;99.90;;;;;;4981691;28;20126;-82
2021/10/22 07:13:24;;;;;;;11.00;4.20;;;9.00;99.90;;;;;;4981891;28;20077;-82
2021/10/22 07:15:51;;;;;;;14.48;4.22;;;9.00;99.90;;;;;;4980260;28;20110;-83
2021/10/22 07:18:18;;;;;;;15.32;5.15;;;9.20;99.90;;;;;;4979063;28;20089;-82
2021/10/22 07:20:45;;;;;;;15.00;4.78;;;9.20;99.90;;;;;;4984810;28;20159;-82
2021/10/22 07:23:12;;;;;;;13.95;4.25;;;9.20;99.90;;;;;;4985286;28;20055;-83
2021/10/22 07:25:41;;;;;;;11.13;4.65;;;9.30;99.90;;;;;;4985337;28;20062;-84
2021/10/22 07:28:12;;;;;;;11.57;4.28;;;9.40;99.90;;;;;;4986171;28;20058;-83
2021/10/22 07:30:43;;;;;;;14.93;4.93;;;9.40;99.90;;;;;;4986593;28;20058;-81
2021/10/22 07:33:10;;;;;;;11.18;4.55;;;9.60;99.90;;;;;;4987373;28;20050;-81
2021/10/22 07:35:39;;;;;;;10.32;4.57;;;9.50;99.90;;;;;;4985948;28;20075;-82
2021/10/22 07:38:09;;;;;;;12.82;4.65;;;9.50;99.90;;;;;;4990324;28;20057;-82
2021/10/22 07:40:36;;;;;;;9.13;4.30;;;9.50;99.90;;;;;;4990420;28;20544;-79
2021/10/22 07:43:03;;;;;;;14.82;4.78;;;9.70;99.90;;;;;;4980182;28;20137;-78
2021/10/22 07:45:30;;;;;;;11.38;4.35;;;10.00;99.90;;;;;;4979516;28;20130;-79
2021/10/22 07:47:58;;;;;;;11.75;4.00;;;10.00;99.90;;;;;;4979666;28;20051;-79
2021/10/22 07:50:25;;;;;;;16.25;4.60;;;10.00;99.90;;;;;;4979717;28;20137;-78
2021/10/22 07:52:52;;;;;;;13.70;4.32;;;10.10;99.90;;;;;;4980621;28;20111;-78
2021/10/22 07:55:19;;;;;;;15.45;4.43;;;10.30;99.90;;;;;;4979447;28;20485;-79
2021/10/22 07:57:47;;;;;;;11.18;4.07;;;10.30;99.90;;;;;;4979255;28;20047;-81
2021/10/22 08:00:14;;;;;;;11.73;4.20;;;10.50;99.90;;;;;;4979607;28;20515;-80
2021/10/22 08:02:41;;;;;;;12.98;3.90;;;10.60;99.90;;;;;;4979696;28;20473;-79
2021/10/22 08:05:10;;;;;;;16.30;4.20;;;10.70;99.90;;;;;;4978947;28;20157;-79
2021/10/22 08:07:38;;;;;;;14.27;4.45;;;10.70;99.90;;;;;;4979206;28;20051;-79
2021/10/22 08:10:06;;;;;;;9.27;3.90;;;10.70;99.90;;;;;;4984096;28;20134;-83
2021/10/22 08:12:34;;;;;;;9.30;4.13;;;10.70;99.90;;;;;;4987881;28;20054;-82
2021/10/22 08:15:01;;;;;;;11.57;4.07;;;10.80;99.90;;;;;;4986582;28;20082;-82
2021/10/22 08:17:28;;;;;;;11.25;3.90;;;10.70;99.90;;;;;;4987507;28;20051;-83
2021/10/22 08:19:58;;;;;;;13.88;4.00;;;10.70;99.90;;;;;;4987685;28;20059;-80
2021/10/22 08:22:29;;;;;;;14.02;4.07;;;10.90;99.90;;;;;;4981866;28;20061;-81
2021/10/22 08:25:01;;;;;;;9.52;4.55;;;11.00;99.90;;;;;;4986343;28;20105;-83
2021/10/22 08:27:30;;;;;;;11.77;3.90;;;11.00;99.90;;;;;;4988204;28;20058;-82
2021/10/22 08:29:57;;;;;;;7.20;3.50;;;10.90;99.90;;;;;;4989402;28;20074;-83
2021/10/22 08:32:24;;;;;;;10.57;3.80;;;10.80;99.90;;;;;;4986848;28;20460;-82
2021/10/22 08:34:51;;;;;;;11.88;3.70;;;10.60;99.90;;;;;;4981617;28;20122;-78
2021/10/22 08:37:18;;;;;;;10.63;3.67;;;10.40;99.90;;;;;;4985163;28;20074;-82
2021/10/22 08:39:47;;;;;;;7.10;3.70;;;10.20;99.90;;;;;;4984014;28;20086;-83
2021/10/22 08:42:19;;;;;;;10.05;3.70;;;10.20;99.90;;;;;;4984709;28;20051;-83
2021/10/22 08:44:46;;;;;;;11.40;3.53;;;10.10;99.90;;;;;;4983967;28;20477;-81
2021/10/22 08:47:13;;;;;;;11.88;3.70;;;10.00;99.90;;;;;;4984593;28;20133;-82
2021/10/22 08:49:40;;;;;;;8.88;3.70;;;9.90;99.90;;;;;;4984403;28;20085;-83
2021/10/22 08:52:08;;;;;;;6.63;3.75;;;10.00;99.90;;;;;;4984925;28;20085;-83
2021/10/22 08:54:36;;;;;;;10.05;3.55;;;10.00;99.90;;;;;;4984287;28;20473;-83
2021/10/22 08:57:05;;;;;;;12.07;4.10;;;10.10;99.90;;;;;;4985717;28;20082;-83
2021/10/22 08:59:32;;;;;;;12.55;3.70;;;10.10;99.90;;;;;;4986570;28;20047;-83
2021/10/22 09:02:17;;;;;;;13.05;4.05;;;10.40;99.90;;;;;;4986746;28;20047;-84
2021/10/22 09:04:45;;;;;;;13.15;4.15;;;10.60;99.90;;;;;;4985868;28;20058;-83
2021/10/22 09:07:18;;;;;;;12.98;4.22;;;10.70;99.90;;;;;;4985066;28;20176;-81
2021/10/22 09:09:46;;;;;;;10.05;3.80;;;10.80;99.90;;;;;;4986262;28;20055;-83
2021/10/22 09:12:15;;;;;;;10.27;4.00;;;10.80;99.90;;;;;;4987363;28;20081;-84
2021/10/22 09:15:00;;;;;;;9.23;3.90;;;10.80;99.90;;;;;;4983996;28;20070;-83
2021/10/22 09:17:37;;;;;;;9.70;3.83;;;10.70;99.90;;;;;;4984406;28;20082;-82
2021/10/22 09:20:05;;;;;;;10.68;3.42;;;10.70;99.90;;;;;;4986000;28;20480;-83
2021/10/22 09:22:34;;;;;;;10.77;4.68;;;10.60;99.90;;;;;;4984235;28;20073;-84
2021/10/22 09:25:05;;;;;;;9.98;3.70;;;10.70;99.90;;;;;;4983080;28;20078;-83
2021/10/22 09:27:39;;;;;;;13.05;3.88;;;10.70;99.90;;;;;;4983668;28;20059;-83
2021/10/22 09:30:10;;;;;;;9.02;3.35;;;10.90;99.90;;;;;;4984424;28;20086;-84
2021/10/22 09:32:46;;;;;;;9.82;3.85;;;10.80;99.90;;;;;;4984517;28;20054;-80
2021/10/22 09:35:14;;;;;;;14.88;4.15;;;10.90;99.90;;;;;;4986898;28;20046;-82
2021/10/22 09:37:42;;;;;;;10.00;3.92;;;10.90;99.90;;;;;;4983034;28;20061;-82
2021/10/22 09:40:10;;;;;;;7.78;3.75;;;10.90;99.90;;;;;;4983791;28;20138;-82
2021/10/22 09:42:48;;;;;;;15.52;3.90;;;10.70;99.90;;;;;;4981880;28;20058;-81
2021/10/22 09:45:26;;;;;;;12.95;3.25;;;10.70;99.90;;;;;;4980682;28;20104;-82
2021/10/22 09:47:53;;;;;;;11.32;3.85;;;10.50;99.90;;;;;;4979669;28;20054;-81
2021/10/22 09:50:30;;;;;;;10.68;3.55;;;10.50;99.90;;;;;;4978506;28;20051;-81
2021/10/22 09:52:57;;;;;;;11.43;3.25;;;10.60;99.90;;;;;;4977419;28;20048;-83
2021/10/22 09:55:29;;;;;;;7.13;3.22;;;10.60;99.90;;;;;;4980476;28;20053;-83
2021/10/22 09:58:07;;;;;;;8.65;3.55;;;10.70;99.90;;;;;;4982096;28;20066;-83
2021/10/22 10:00:36;;;;;;;12.63;4.38;;;10.80;99.90;;;;;;4978772;28;20058;-80
2021/10/22 10:03:04;;;;;;;12.02;4.53;;;10.90;99.90;;;;;;4978723;28;20079;-80
2021/10/22 10:05:45;;;;;;;11.05;3.65;;;11.00;99.90;;;;;;4980820;28;20050;-81
2021/10/22 10:08:14;;;;;;;9.52;3.28;;;11.20;99.90;;;;;;4980120;28;20082;-80
2021/10/22 10:10:41;;;;;;;7.60;3.28;;;11.40;99.90;;;;;;4980183;28;20065;-80
2021/10/22 10:13:09;;;;;;;9.10;3.55;;;11.50;99.90;;;;;;4979271;28;20493;-81
2021/10/22 10:15:38;;;;;;;9.57;3.60;;;11.50;99.90;;;;;;4979467;28;20417;-80
2021/10/22 10:18:21;;;;;;;10.73;3.30;;;11.50;99.90;;;;;;4979236;28;20241;-80
2021/10/22 10:20:54;;;;;;;8.00;3.45;;;11.50;99.90;;;;;;4981336;28;20113;-80
2021/10/22 10:23:24;;;;;;;8.65;3.25;;;11.40;99.90;;;;;;4984329;28;20055;-79
2021/10/22 10:25:51;;;;;;;12.15;3.08;;;11.30;99.90;;;;;;4982174;28;20074;-80
2021/10/22 10:28:41;;;;;;;9.20;3.70;;;11.20;99.90;;;;;;4980746;28;20121;-81
2021/10/22 10:31:56;;;;;;;8.73;3.35;;;11.10;99.90;;;;;;4980087;28;20086;-81
2021/10/22 10:34:46;;;;;;;10.00;3.42;;;11.10;99.90;;;;;;4978392;28;20055;-80
2021/10/22 10:37:55;;;;;;;9.13;3.65;;;11.20;99.90;;;;;;4981657;28;20086;-81
2021/10/22 10:43:08;;;;;;;11.55;3.90;;;11.50;99.90;;;;;;4979576;28;20058;-81
2021/10/22 10:45:46;;;;;;;9.15;3.05;;;11.60;99.90;;;;;;4980043;28;20054;-81
2021/10/22 10:48:20;;;;;;;10.73;3.83;;;11.60;99.90;;;;;;4979200;28;20074;-82
2021/10/22 10:50:53;;;;;;;8.55;3.20;;;11.50;99.90;;;;;;4978884;28;20053;-80
2021/10/22 10:53:34;;;;;;;9.10;2.88;;;11.50;99.90;;;;;;5004216;23;20120;-78
2021/10/22 10:56:02;;;;;;;4.75;2.75;;;11.50;99.90;;;;;;4989151;28;20046;-79
2021/10/22 10:58:29;;;;;;;12.20;3.53;;;11.50;99.90;;;;;;4997417;28;20137;-78
2021/10/22 11:01:00;;;;;;;12.70;4.60;;;11.50;99.90;;;;;;4996976;28;20560;-78
2021/10/22 11:03:42;;;;;;;8.98;3.10;;;11.60;99.90;;;;;;4997199;28;20046;-78
2021/10/22 11:06:10;;;;;;;7.57;3.53;;;11.70;99.90;;;;;;4997182;28;20046;-78
2021/10/22 11:08:43;;;;;;;7.72;3.70;;;11.80;99.90;;;;;;4997819;28;20054;-78
2021/10/22 11:11:24;;;;;;;;;;;11.80;99.90;;;;;;4997860;28;20050;-77
2021/10/22 11:13:52;;;;;;;15.77;4.68;;;11.90;99.90;;;;;;4997059;28;20383;-77
2021/10/22 11:16:35;;;;;;;10.70;4.05;;;12.00;99.90;;;;;;4996442;28;20133;-79
2021/10/22 11:19:04;;;;;;;;;;;11.90;99.90;;;;;;4997008;28;20050;-78
2021/10/22 11:21:33;;;;;;;7.80;3.03;;;12.00;99.90;;;;;;4996887;28;19922;-78
2021/10/22 11:24:02;;;;;;;9.18;3.08;;;12.10;99.90;;;;;;4996193;28;20054;-78
2021/10/22 11:26:29;;;;;;;24.83;4.65;;;12.20;99.90;;;;;;4996867;28;20049;-78
2021/10/22 11:28:58;;;;;;;12.43;3.45;;;12.50;99.90;;;;;;4996022;28;20054;-78
2021/10/22 11:31:41;;;;;;;9.15;3.10;;;12.70;99.90;;;;;;4996339;28;20097;-79
2021/10/22 11:34:08;;;;;;;9.70;3.58;;;12.90;99.90;;;;;;4996010;28;20140;-79
2021/10/22 11:36:36;;;;;;;6.47;3.10;;;12.80;99.90;;;;;;4995699;28;20046;-80
2021/10/22 11:39:03;;;;;;;13.77;4.88;;;12.70;99.90;;;;;;4995949;28;20049;-79
2021/10/22 11:41:30;;;;;;;10.65;3.33;;;12.60;99.90;;;;;;4995960;28;20132;-78
2021/10/22 11:44:06;;;;;;;11.55;3.22;;;12.40;99.90;;;;;;4995155;28;20064;-77
2021/10/22 11:46:45;;;;;;;8.98;3.67;;;12.50;99.90;;;;;;4995165;28;20097;-78
2021/10/22 11:49:23;;;;;;;9.77;3.38;;;12.50;99.90;;;;;;4996092;28;20125;-77
2021/10/22 11:51:53;;;;;;;16.27;3.30;;;12.60;99.90;;;;;;4994932;28;20057;-78
2021/10/22 11:54:22;;;;;;;7.32;3.13;;;12.70;99.90;;;;;;4995362;28;20050;-79
2021/10/22 11:56:49;;;;;;;8.07;3.20;;;12.80;99.90;;;;;;4993937;28;20050;-78
2021/10/22 11:59:16;;;;;;;10.45;3.45;;;12.80;99.90;;;;;;4994096;28;20536;-78
2021/10/22 12:01:45;;;;;;;10.52;2.83;;;12.90;99.90;;;;;;4994897;28;20051;-78
2021/10/22 12:04:23;;;;;;;8.77;3.30;;;12.80;99.90;;;;;;4994216;28;20104;-78
2021/10/22 12:07:02;;;;;;;7.53;3.42;;;12.70;99.90;;;;;;4994550;28;20133;-78
2021/10/22 12:09:30;;;;;;;7.35;3.45;;;12.70;99.90;;;;;;5001471;28;20577;-78
2021/10/22 12:12:08;;;;;;;10.95;3.53;;;12.60;99.90;;;;;;4994069;28;20621;-78
2021/10/22 12:14:37;;;;;;;20.15;3.78;;;12.50;99.90;;;;;;4994457;28;20046;-77
2021/10/22 12:17:06;;;;;;;8.68;3.72;;;12.40;99.90;;;;;;4994875;28;20473;-78
2021/10/22 12:19:33;;;;;;;11.68;3.80;;;12.30;99.90;;;;;;4994969;28;20050;-78
2021/10/22 12:22:00;;;;;;;10.60;3.78;;;12.30;99.90;;;;;;4994632;28;20057;-80
2021/10/22 12:24:39;;;;;;;9.40;3.50;;;12.30;99.90;;;;;;4995143;28;20137;-79
2021/10/22 12:27:07;;;;;;;10.10;3.70;;;12.40;99.90;;;;;;4994345;28;20113;-78
2021/10/22 12:29:59;;;;;;;10.68;3.53;;;12.30;99.90;;;;;;4995021;28;20057;-78
2021/10/22 12:32:50;;;;;;;11.50;3.67;;;12.20;99.90;;;;;;4995749;28;20141;-78
2021/10/22 12:35:28;;;;;;;12.23;3.80;;;12.10;99.90;;;;;;4993676;28;20105;-78
2021/10/22 12:38:05;;;;;;;10.52;3.40;;;12.00;99.90;;;;;;4994414;28;20173;-80
2021/10/22 12:40:33;;;;;;;10.75;3.80;;;11.90;99.90;;;;;;4994821;28;20058;-78
2021/10/22 12:43:13;;;;;;;7.38;3.05;;;11.90;99.90;;;;;;4994029;28;20093;-78
2021/10/22 12:45:59;;;;;;;10.07;3.33;;;11.80;99.90;;;;;;4994540;28;20051;-78
2021/10/22 12:48:29;;;;;;;9.80;3.47;;;11.80;99.90;;;;;;4993977;28;20133;-79
2021/10/22 12:51:02;;;;;;;10.63;3.30;;;11.80;99.90;;;;;;4994757;28;20424;-78
2021/10/22 12:53:32;;;;;;;12.63;3.70;;;11.80;99.90;;;;;;4994414;28;20054;-78
2021/10/22 12:56:05;;;;;;;10.05;3.13;;;11.80;99.90;;;;;;4994473;28;20053;-79
2021/10/22 12:58:32;;;;;;;9.48;3.47;;;11.90;99.90;;;;;;4993870;28;20057;-81
2021/10/22 13:01:13;;;;;;;10.30;3.50;;;12.00;99.90;;;;;;4994032;28;20058;-78
2021/10/22 13:03:43;;;;;;;8.55;3.42;;;12.10;99.90;;;;;;4994107;28;20097;-79
2021/10/22 13:06:21;;;;;;;7.78;3.45;;;12.00;99.90;;;;;;4993741;28;20475;-78
2021/10/22 13:11:36;;;;;;;10.43;3.50;;;12.10;99.90;;;;;;4992858;28;20045;-80
2021/10/22 13:22:29;;;;;;;7.80;3.50;;;12.30;99.90;;;;;;4998056;28;20113;-79